TRS weather

Trieste–Friuli Venezia Giulia Airport
Trieste, Friuli-Venezia Giulia, Italy

Public forecast

Using degrees Celsius for public forecast. Weather courtesy of forecast.io.

Current aviation weather report (METAR) for Trieste–Friuli Venezia Giulia Airport

Retrieved 2019/10/20 05:20 UTC (0 seconds ago):

LIPQ 200520Z VRB02KT 9999 FEW020 15/15 Q1018

Aviation forecast (TAF) for Trieste–Friuli Venezia Giulia Airport

Retrieved 2019-10-20 00:21 UTC (5 hours ago):

TAF LIPQ 192300Z 2000/2024 VRB05KT 9999 SCT015 TEMPO 2000/2006 3000 BR